createdAt,value
2023-03-11T00:02:03.607Z,6.85
2023-03-11T00:10:32.342Z,6.80
2023-03-11T00:18:55.371Z,6.68
2023-03-11T00:27:18.337Z,6.60
2023-03-11T00:35:42.691Z,6.57
2023-03-11T00:44:06.046Z,6.55
2023-03-11T00:52:31.921Z,6.43
2023-03-11T01:00:55.008Z,6.33
2023-03-11T01:09:18.112Z,6.30
2023-03-11T01:17:42.256Z,6.34
2023-03-11T01:26:06.633Z,6.40
2023-03-11T01:34:29.704Z,6.42
2023-03-11T01:42:55.016Z,6.33
2023-03-11T01:51:27.716Z,6.21
2023-03-11T02:00:01.937Z,6.16
2023-03-11T02:08:46.141Z,6.16
2023-03-11T02:17:10.902Z,6.16
2023-03-11T02:25:56.275Z,6.13
2023-03-11T02:34:25.288Z,6.08
2023-03-11T02:42:59.922Z,6.06
2023-03-11T02:51:23.009Z,6.11
2023-03-11T02:59:46.347Z,6.16
2023-03-11T03:08:09.965Z,6.18
2023-03-11T03:16:33.095Z,6.07
2023-03-11T03:24:56.152Z,5.96
2023-03-11T03:33:19.404Z,5.96
2023-03-11T03:41:42.573Z,5.96
2023-03-11T03:50:09.187Z,5.94
2023-03-11T03:58:33.052Z,5.92
2023-03-11T04:06:56.438Z,5.87
2023-03-11T04:15:20.534Z,5.78
2023-03-11T04:23:44.081Z,5.70
2023-03-11T04:32:08.238Z,5.74
2023-03-11T04:40:32.984Z,5.75
2023-03-11T04:48:56.172Z,5.76
2023-03-11T04:57:21.865Z,5.74
2023-03-11T05:05:46.022Z,5.70
2023-03-11T05:14:09.847Z,5.66
2023-03-11T05:22:33.515Z,5.57
2023-03-11T05:30:57.745Z,5.37
2023-03-11T05:39:21.150Z,5.28
2023-03-11T05:47:44.200Z,5.41
2023-03-11T05:56:08.697Z,5.60
2023-03-11T06:04:32.039Z,5.67
2023-03-11T06:12:56.468Z,5.75
2023-03-11T06:21:31.295Z,5.84
2023-03-11T06:29:54.833Z,5.91
2023-03-11T06:38:18.908Z,5.89
2023-03-11T06:46:42.575Z,5.88
2023-03-11T06:55:07.300Z,5.90
2023-03-11T07:03:30.966Z,5.89
2023-03-11T07:11:55.690Z,5.84
2023-03-11T07:20:23.615Z,5.76
2023-03-11T07:28:47.480Z,5.75
2023-03-11T07:37:10.459Z,5.76
2023-03-11T07:45:34.014Z,5.79
2023-03-11T07:53:59.120Z,5.78
2023-03-11T08:02:22.199Z,5.78
2023-03-11T08:10:45.321Z,5.79
2023-03-11T08:19:12.250Z,5.77
2023-03-11T08:27:35.180Z,5.77
2023-03-11T08:35:58.167Z,5.75
2023-03-11T08:44:21.719Z,5.70
2023-03-11T08:52:44.905Z,5.64
2023-03-11T09:01:09.477Z,5.60
2023-03-11T09:09:41.394Z,5.53
2023-03-11T09:18:04.970Z,5.49
2023-03-11T09:26:27.990Z,5.43
2023-03-11T09:34:51.035Z,5.28
2023-03-11T09:43:24.626Z,5.19
2023-03-11T09:52:13.237Z,5.12
2023-03-11T10:00:36.340Z,5.01
2023-03-11T10:09:21.233Z,4.88
2023-03-11T10:18:21.992Z,4.78
2023-03-11T10:26:51.564Z,4.59
2023-03-11T10:35:22.515Z,4.51
2023-03-11T10:43:52.872Z,4.49
2023-03-11T10:52:16.403Z,4.47
2023-03-11T11:00:39.370Z,4.37
2023-03-11T11:09:16.090Z,4.32
2023-03-11T11:17:40.485Z,4.29
2023-03-11T11:26:07.266Z,4.23
2023-03-11T11:34:35.612Z,4.08
2023-03-11T11:43:22.785Z,3.93
2023-03-11T11:52:16.166Z,3.66
2023-03-11T12:00:58.519Z,3.22
2023-03-11T12:09:45.245Z,2.79
2023-03-11T12:18:25.044Z,2.42
2023-03-11T12:26:52.534Z,2.18
2023-03-11T12:35:24.309Z,2.03
2023-03-11T12:43:47.438Z,1.71
2023-03-11T12:52:13.785Z,1.39
2023-03-11T13:00:53.388Z,1.18
2023-03-11T13:09:17.762Z,0.96
2023-03-11T13:17:41.941Z,0.68
2023-03-11T13:26:25.793Z,0.45
2023-03-11T13:35:01.096Z,0.30
2023-03-11T13:43:26.220Z,0.18
2023-03-11T13:51:50.498Z,0.01
2023-03-11T14:00:24.173Z,-0.10
2023-03-11T14:08:57.848Z,-0.21
2023-03-11T14:17:21.661Z,-0.33
2023-03-11T14:25:44.657Z,-0.42
2023-03-11T14:34:15.988Z,-0.50
2023-03-11T14:42:41.487Z,-0.55
2023-03-11T14:51:25.039Z,-0.54
2023-03-11T15:00:44.151Z,-0.59
2023-03-11T15:09:30.374Z,-0.67
2023-03-11T15:17:59.253Z,-0.70
2023-03-11T15:26:31.213Z,-0.73
2023-03-11T15:35:27.810Z,-0.71
2023-03-11T15:43:51.050Z,-0.72
2023-03-11T15:52:14.480Z,-0.71
2023-03-11T16:00:43.069Z,-0.75
2023-03-11T16:09:11.003Z,-0.79
2023-03-11T16:17:48.991Z,-0.82
2023-03-11T16:26:17.165Z,-0.81
2023-03-11T16:34:40.602Z,-0.83
2023-03-11T16:43:10.527Z,-0.86
2023-03-11T16:51:34.140Z,-0.89
2023-03-11T16:59:58.234Z,-0.91
2023-03-11T17:08:23.567Z,-0.97
2023-03-11T17:16:47.638Z,-1.01
2023-03-11T17:25:11.180Z,-1.03
2023-03-11T17:33:34.656Z,-1.02
2023-03-11T17:41:58.571Z,-1.02
2023-03-11T17:50:22.395Z,-1.01
2023-03-11T17:58:46.646Z,-1.03
2023-03-11T18:07:10.345Z,-1.03
2023-03-11T18:15:33.618Z,-1.05
2023-03-11T18:23:58.704Z,-1.08
2023-03-11T18:32:22.106Z,-1.10
2023-03-11T18:40:45.388Z,-1.10
2023-03-11T18:49:12.366Z,-1.10
2023-03-11T18:57:35.500Z,-1.07
2023-03-11T19:05:59.834Z,-1.07
2023-03-11T19:14:23.400Z,-1.07
2023-03-11T19:22:47.752Z,-1.07
2023-03-11T19:31:11.583Z,-1.07
2023-03-11T19:39:34.988Z,-1.09
2023-03-11T19:47:58.303Z,-1.17
2023-03-11T19:56:21.672Z,-1.30
2023-03-11T20:04:44.890Z,-1.43
2023-03-11T20:13:09.617Z,-1.54
2023-03-11T20:21:33.342Z,-1.67
2023-03-11T20:29:56.413Z,-1.76
2023-03-11T20:38:19.640Z,-1.84
2023-03-11T20:46:43.433Z,-1.91
2023-03-11T20:55:14.028Z,-1.97
2023-03-11T21:03:37.190Z,-2.05
2023-03-11T21:12:01.860Z,-2.09
2023-03-11T21:20:25.761Z,-2.15
2023-03-11T21:28:49.994Z,-2.19
2023-03-11T21:37:13.214Z,-2.22
2023-03-11T21:45:36.429Z,-2.25
2023-03-11T21:53:59.752Z,-2.29
2023-03-11T22:02:23.615Z,-2.33
2023-03-11T22:10:47.093Z,-2.28
2023-03-11T22:19:11.497Z,-2.18
2023-03-11T22:27:38.738Z,-2.11
2023-03-11T22:36:04.923Z,-1.95
2023-03-11T22:44:28.520Z,-1.82
2023-03-11T22:52:52.790Z,-1.68
2023-03-11T23:01:16.594Z,-1.64
2023-03-11T23:09:39.841Z,-1.62
2023-03-11T23:18:03.028Z,-1.61
2023-03-11T23:26:28.363Z,-1.57
2023-03-11T23:34:51.469Z,-1.56
2023-03-11T23:43:14.770Z,-1.56
2023-03-11T23:51:37.929Z,-1.59
